createdAt,value
2022-12-11T00:01:14.832Z,59.55
2022-12-11T00:03:59.774Z,60.88
2022-12-11T00:06:44.716Z,61.38
2022-12-11T00:09:29.677Z,60.57
2022-12-11T00:12:14.607Z,60.68
2022-12-11T00:14:59.633Z,61.40
2022-12-11T00:17:44.463Z,60.86
2022-12-11T00:20:29.454Z,60.27
2022-12-11T00:23:14.387Z,60.35
2022-12-11T00:25:59.190Z,60.26
2022-12-11T00:28:44.139Z,60.77
2022-12-11T00:31:29.016Z,61.08
2022-12-11T00:34:13.917Z,59.67
2022-12-11T00:36:58.951Z,59.91
2022-12-11T00:39:43.983Z,60.45
2022-12-11T00:42:28.786Z,59.80
2022-12-11T00:45:13.809Z,60.24
2022-12-11T00:47:58.673Z,59.32
2022-12-11T00:50:43.662Z,58.67
2022-12-11T00:53:28.558Z,58.94
2022-12-11T00:56:13.463Z,59.67
2022-12-11T00:58:58.552Z,59.81
2022-12-11T01:01:43.357Z,60.01
2022-12-11T01:04:28.347Z,60.01
2022-12-11T01:07:13.180Z,60.22
2022-12-11T01:09:58.122Z,59.96
2022-12-11T01:12:42.986Z,60.16
2022-12-11T01:15:27.891Z,59.50
2022-12-11T01:18:12.784Z,59.25
2022-12-11T01:20:57.527Z,59.71
2022-12-11T01:23:42.510Z,59.29
2022-12-11T01:26:27.364Z,60.12
2022-12-11T01:29:12.285Z,59.04
2022-12-11T01:31:57.070Z,59.72
2022-12-11T01:34:41.950Z,60.23
2022-12-11T01:37:26.755Z,59.42
2022-12-11T01:40:11.853Z,59.85
2022-12-11T01:42:56.644Z,60.07
2022-12-11T01:45:41.717Z,60.67
2022-12-11T01:48:26.774Z,60.45
2022-12-11T01:51:11.578Z,60.02
2022-12-11T01:53:56.587Z,59.39
2022-12-11T01:56:41.448Z,59.39
2022-12-11T01:59:26.463Z,59.34
2022-12-11T02:02:11.385Z,60.04
2022-12-11T02:04:56.233Z,61.35
2022-12-11T02:07:41.152Z,62.42
2022-12-11T02:10:26.141Z,62.06
2022-12-11T02:13:11.100Z,61.59
2022-12-11T02:15:55.864Z,61.74
2022-12-11T02:18:40.889Z,61.98
2022-12-11T02:21:25.748Z,62.18
2022-12-11T02:24:10.840Z,62.00
2022-12-11T02:26:55.678Z,61.60
2022-12-11T02:29:40.625Z,62.43
2022-12-11T02:32:25.542Z,61.09
2022-12-11T02:35:10.757Z,62.24
2022-12-11T02:37:56.060Z,60.50
2022-12-11T02:40:40.925Z,63.30
2022-12-11T02:43:25.791Z,64.05
2022-12-11T02:46:10.734Z,63.38
2022-12-11T02:48:55.658Z,63.94
2022-12-11T02:51:40.698Z,62.56
2022-12-11T02:54:25.397Z,64.04
2022-12-11T02:57:10.350Z,64.45
2022-12-11T02:59:55.285Z,63.83
2022-12-11T03:02:40.306Z,64.21
2022-12-11T03:05:25.087Z,63.36
2022-12-11T03:08:10.166Z,62.90
2022-12-11T03:10:54.920Z,62.79
2022-12-11T03:13:39.713Z,64.05
2022-12-11T03:16:24.538Z,63.77
2022-12-11T03:19:09.457Z,62.56
2022-12-11T03:21:54.308Z,62.22
2022-12-11T03:24:39.008Z,62.28
2022-12-11T03:27:23.968Z,62.39
2022-12-11T03:30:08.816Z,62.92
2022-12-11T03:32:53.808Z,62.56
2022-12-11T03:35:38.635Z,62.33
2022-12-11T03:38:23.473Z,64.05
2022-12-11T03:41:08.349Z,62.85
2022-12-11T03:43:53.281Z,63.97
2022-12-11T03:46:38.270Z,63.31
2022-12-11T03:49:23.260Z,62.89
2022-12-11T03:52:08.219Z,62.58
2022-12-11T03:54:53.143Z,62.37
2022-12-11T03:57:38.210Z,61.52
2022-12-11T04:00:23.087Z,61.04
2022-12-11T04:03:12.920Z,61.44
2022-12-11T04:05:58.864Z,61.81
2022-12-11T04:08:43.656Z,61.36
2022-12-11T04:11:28.538Z,61.07
2022-12-11T04:14:13.323Z,61.56
2022-12-11T04:16:58.118Z,61.04
2022-12-11T04:19:42.969Z,62.16
2022-12-11T04:22:27.745Z,62.07
2022-12-11T04:25:12.780Z,61.86
2022-12-11T04:27:57.958Z,62.23
2022-12-11T04:30:42.790Z,61.66
2022-12-11T04:33:27.677Z,61.88
2022-12-11T04:36:12.728Z,61.52
2022-12-11T04:38:57.539Z,61.97
2022-12-11T04:41:42.484Z,61.55
2022-12-11T04:44:27.333Z,62.50
2022-12-11T04:47:12.141Z,62.44
2022-12-11T04:49:57.061Z,63.64
2022-12-11T04:52:41.875Z,61.59
2022-12-11T04:55:26.845Z,63.19
2022-12-11T04:58:11.775Z,61.76
2022-12-11T05:00:56.573Z,61.96
2022-12-11T05:03:41.565Z,62.37
2022-12-11T05:06:26.489Z,61.47
2022-12-11T05:09:11.249Z,60.65
2022-12-11T05:11:56.149Z,60.94
2022-12-11T05:14:41.178Z,61.41
2022-12-11T05:17:26.009Z,62.32
2022-12-11T05:20:11.066Z,61.78
2022-12-11T05:22:55.908Z,61.71
2022-12-11T05:25:40.976Z,61.34
2022-12-11T05:28:25.811Z,60.74
2022-12-11T05:31:10.764Z,60.89
2022-12-11T05:33:55.680Z,59.85
2022-12-11T05:36:40.592Z,60.23
2022-12-11T05:39:25.402Z,59.65
2022-12-11T05:42:10.226Z,60.08
2022-12-11T05:44:55.142Z,61.78
2022-12-11T05:47:39.878Z,61.66
2022-12-11T05:50:24.762Z,61.89
2022-12-11T05:53:09.679Z,61.39
2022-12-11T05:55:54.553Z,61.01
2022-12-11T05:58:39.381Z,63.28
2022-12-11T06:01:24.348Z,62.86
2022-12-11T06:04:09.304Z,60.48
2022-12-11T06:06:54.292Z,60.60
2022-12-11T06:09:39.276Z,60.58
2022-12-11T06:12:24.160Z,61.77
2022-12-11T06:15:09.505Z,62.42
2022-12-11T06:17:54.873Z,62.53
2022-12-11T06:20:39.811Z,62.65
2022-12-11T06:23:24.647Z,61.60
2022-12-11T06:26:09.514Z,61.44
2022-12-11T06:28:54.561Z,61.50
2022-12-11T06:31:39.577Z,61.57
2022-12-11T06:34:24.853Z,60.57
2022-12-11T06:37:09.728Z,60.32
2022-12-11T06:39:54.714Z,60.93
2022-12-11T06:42:39.602Z,63.01
2022-12-11T06:45:24.511Z,62.30
2022-12-11T06:48:09.438Z,61.65
2022-12-11T06:50:54.194Z,61.20
2022-12-11T06:53:39.215Z,62.78
2022-12-11T06:56:24.128Z,61.90
2022-12-11T06:59:09.103Z,62.49
2022-12-11T07:01:54.481Z,62.66
2022-12-11T07:04:39.911Z,62.10
2022-12-11T07:07:24.898Z,63.00
2022-12-11T07:10:09.802Z,62.90
2022-12-11T07:12:54.739Z,62.38
2022-12-11T07:15:40.616Z,62.63
2022-12-11T07:18:25.627Z,63.94
2022-12-11T07:21:10.463Z,63.29
2022-12-11T07:23:55.295Z,63.58
2022-12-11T07:26:40.239Z,63.82
2022-12-11T07:29:25.170Z,63.83
2022-12-11T07:32:10.354Z,64.32
2022-12-11T07:34:55.664Z,63.52
2022-12-11T07:37:40.761Z,64.12
2022-12-11T07:40:25.711Z,65.15
2022-12-11T07:43:10.613Z,64.08
2022-12-11T07:45:55.571Z,63.38
2022-12-11T07:48:40.449Z,63.27
2022-12-11T07:51:25.412Z,63.02
2022-12-11T07:54:10.374Z,62.83
2022-12-11T07:56:55.224Z,62.46
2022-12-11T07:59:40.078Z,61.52
2022-12-11T08:02:25.211Z,60.79
2022-12-11T08:05:10.422Z,61.15
2022-12-11T08:07:55.956Z,59.74
2022-12-11T08:10:40.821Z,59.62
2022-12-11T08:13:25.811Z,59.60
2022-12-11T08:16:10.730Z,59.14
2022-12-11T08:18:55.534Z,58.28
2022-12-11T08:21:40.607Z,57.15
2022-12-11T08:24:25.503Z,57.87
2022-12-11T08:27:10.400Z,56.74
2022-12-11T08:29:55.298Z,57.24
2022-12-11T08:32:40.230Z,56.77
2022-12-11T08:35:25.077Z,56.04
2022-12-11T08:38:09.948Z,55.53
2022-12-11T08:40:54.965Z,55.36
2022-12-11T08:43:39.866Z,55.50
2022-12-11T08:46:24.827Z,54.79
2022-12-11T08:49:10.037Z,54.25
2022-12-11T08:51:54.921Z,53.67
2022-12-11T08:54:39.740Z,54.46
2022-12-11T08:57:24.740Z,53.42
2022-12-11T09:00:09.705Z,54.20
2022-12-11T09:02:54.641Z,54.03
2022-12-11T09:05:40.125Z,53.63
2022-12-11T09:08:25.101Z,53.26
2022-12-11T09:11:10.101Z,53.39
2022-12-11T09:13:55.019Z,52.52
2022-12-11T09:16:39.980Z,54.30
2022-12-11T09:19:29.207Z,53.11
2022-12-11T09:22:17.144Z,52.09
2022-12-11T09:25:02.059Z,51.29
2022-12-11T09:27:47.028Z,51.79
2022-12-11T09:30:32.050Z,51.38
2022-12-11T09:33:17.002Z,51.77
2022-12-11T09:36:01.833Z,49.82
2022-12-11T09:38:46.699Z,49.24
2022-12-11T09:41:31.502Z,49.93
2022-12-11T09:44:16.500Z,48.88
2022-12-11T09:47:01.353Z,48.97
2022-12-11T09:49:46.056Z,48.21
2022-12-11T09:52:31.075Z,47.78
2022-12-11T09:55:16.070Z,47.73
2022-12-11T09:58:01.106Z,46.82
2022-12-11T10:00:45.998Z,47.33
2022-12-11T10:03:31.003Z,47.67
2022-12-11T10:06:15.817Z,46.16
2022-12-11T10:09:00.757Z,46.58
2022-12-11T10:11:45.553Z,46.36
2022-12-11T10:14:30.490Z,46.37
2022-12-11T10:17:16.002Z,43.63
2022-12-11T10:20:00.897Z,43.64
2022-12-11T10:22:45.798Z,44.15
2022-12-11T10:25:30.647Z,44.22
2022-12-11T10:28:15.561Z,44.44
2022-12-11T10:31:00.518Z,43.93
2022-12-11T10:33:45.371Z,43.08
2022-12-11T10:36:30.234Z,46.52
2022-12-11T10:39:15.021Z,46.37
2022-12-11T10:42:00.057Z,45.45
2022-12-11T10:44:45.269Z,46.64
2022-12-11T10:47:30.373Z,44.17
2022-12-11T10:50:15.299Z,44.08
2022-12-11T10:53:00.264Z,45.71
2022-12-11T10:55:45.219Z,45.10
2022-12-11T10:58:30.118Z,43.73
2022-12-11T11:01:15.244Z,42.73
2022-12-11T11:04:00.649Z,41.11
2022-12-11T11:06:45.636Z,40.66
2022-12-11T11:09:30.605Z,40.37
2022-12-11T11:12:15.506Z,41.57
2022-12-11T11:15:00.322Z,42.11
2022-12-11T11:17:54.246Z,41.90
2022-12-11T11:20:39.975Z,39.62
2022-12-11T11:23:25.068Z,39.91
2022-12-11T11:26:09.932Z,38.05
2022-12-11T11:28:54.980Z,37.88
2022-12-11T11:31:39.806Z,37.73
2022-12-11T11:34:24.718Z,39.17
2022-12-11T11:37:09.511Z,39.70
2022-12-11T11:39:54.452Z,39.49
2022-12-11T11:42:39.461Z,38.35
2022-12-11T11:45:24.327Z,37.78
2022-12-11T11:48:11.549Z,37.07
2022-12-11T11:50:56.546Z,38.03
2022-12-11T11:53:41.520Z,36.90
2022-12-11T11:56:26.439Z,38.36
2022-12-11T11:59:11.250Z,39.04
2022-12-11T12:01:56.150Z,36.81
2022-12-11T12:04:41.002Z,37.20
2022-12-11T12:07:25.933Z,36.97
2022-12-11T12:10:10.804Z,36.40
2022-12-11T12:12:56.173Z,37.17
2022-12-11T12:15:41.067Z,36.43
2022-12-11T12:18:25.957Z,34.97
2022-12-11T12:21:10.837Z,37.01
2022-12-11T12:23:55.689Z,33.80
2022-12-11T12:26:40.560Z,34.95
2022-12-11T12:29:25.518Z,34.38
2022-12-11T12:32:10.531Z,35.06
2022-12-11T12:34:55.463Z,35.66
2022-12-11T12:37:40.333Z,35.26
2022-12-11T12:40:25.137Z,35.25
2022-12-11T12:43:10.057Z,35.34
2022-12-11T12:45:55.058Z,35.15
2022-12-11T12:48:39.878Z,35.33
2022-12-11T12:51:24.833Z,35.68
2022-12-11T12:54:12.469Z,37.28
2022-12-11T12:56:57.745Z,36.51
2022-12-11T12:59:42.518Z,36.70
2022-12-11T13:02:27.437Z,37.30
2022-12-11T13:05:12.723Z,36.53
2022-12-11T13:07:57.900Z,36.92
2022-12-11T13:10:42.860Z,38.30
2022-12-11T13:13:27.678Z,37.27
2022-12-11T13:16:12.684Z,38.37
2022-12-11T13:18:57.428Z,38.30
2022-12-11T13:21:42.298Z,37.59
2022-12-11T13:24:27.308Z,37.51
2022-12-11T13:27:11.994Z,36.79
2022-12-11T13:29:56.923Z,36.95
2022-12-11T13:32:41.832Z,36.13
2022-12-11T13:35:26.763Z,37.17
2022-12-11T13:38:11.546Z,35.84
2022-12-11T13:40:56.498Z,35.98
2022-12-11T13:43:41.221Z,37.64
2022-12-11T13:46:26.053Z,36.68
2022-12-11T13:49:10.925Z,35.26
2022-12-11T13:51:55.914Z,34.84
2022-12-11T13:54:40.769Z,35.17
2022-12-11T13:57:25.659Z,34.47
2022-12-11T14:00:15.825Z,34.47
2022-12-11T14:03:02.556Z,36.08
2022-12-11T14:05:47.655Z,35.40
2022-12-11T14:08:33.664Z,34.75
2022-12-11T14:11:18.458Z,35.09
2022-12-11T14:14:03.420Z,33.91
2022-12-11T14:16:48.316Z,34.49
2022-12-11T14:19:33.149Z,34.98
2022-12-11T14:22:18.160Z,34.05
2022-12-11T14:25:03.064Z,35.66
2022-12-11T14:27:48.031Z,34.78
2022-12-11T14:30:32.992Z,35.04
2022-12-11T14:33:17.901Z,35.02
2022-12-11T14:36:02.727Z,34.77
2022-12-11T14:38:47.619Z,35.54
2022-12-11T14:41:32.519Z,35.73
2022-12-11T14:44:17.461Z,38.74
2022-12-11T14:47:02.618Z,38.22
2022-12-11T14:49:47.518Z,39.28
2022-12-11T14:52:32.509Z,41.27
2022-12-11T14:55:17.468Z,41.88
2022-12-11T14:58:02.478Z,42.98
2022-12-11T15:00:47.283Z,43.35
2022-12-11T15:03:32.301Z,44.49
2022-12-11T15:06:17.289Z,45.40
2022-12-11T15:09:02.312Z,45.62
2022-12-11T15:11:47.242Z,46.12
2022-12-11T15:14:32.124Z,47.00
2022-12-11T15:17:17.119Z,47.06
2022-12-11T15:20:01.932Z,47.28
2022-12-11T15:22:46.798Z,47.35
2022-12-11T15:25:31.681Z,48.72
2022-12-11T15:28:16.511Z,48.53
2022-12-11T15:31:01.293Z,48.69
2022-12-11T15:33:46.168Z,48.67
2022-12-11T15:36:31.237Z,47.78
2022-12-11T15:39:16.096Z,48.40
2022-12-11T15:42:01.055Z,49.49
2022-12-11T15:44:45.874Z,48.95
2022-12-11T15:47:30.927Z,49.28
2022-12-11T15:50:15.717Z,49.71
2022-12-11T15:53:00.621Z,49.01
2022-12-11T15:55:45.497Z,50.52
2022-12-11T15:58:30.510Z,49.77
2022-12-11T16:01:15.501Z,50.92
2022-12-11T16:04:04.645Z,50.93
2022-12-11T16:06:49.776Z,51.37
2022-12-11T16:09:34.710Z,51.16
2022-12-11T16:12:19.638Z,52.27
2022-12-11T16:15:04.569Z,51.82
2022-12-11T16:17:49.456Z,52.15
2022-12-11T16:20:34.535Z,52.63
2022-12-11T16:23:19.440Z,51.15
2022-12-11T16:26:04.305Z,51.39
2022-12-11T16:28:49.225Z,51.45
2022-12-11T16:31:34.343Z,51.69
2022-12-11T16:34:19.260Z,51.28
2022-12-11T16:37:04.075Z,51.94
2022-12-11T16:39:49.125Z,51.51
2022-12-11T16:42:33.862Z,51.26
2022-12-11T16:45:18.860Z,50.98
2022-12-11T16:48:03.683Z,50.26
2022-12-11T16:50:48.600Z,50.18
2022-12-11T16:53:33.393Z,51.36
2022-12-11T16:56:18.315Z,50.93
2022-12-11T16:59:03.124Z,51.50
2022-12-11T17:01:48.058Z,51.83
2022-12-11T17:04:32.974Z,51.41
2022-12-11T17:07:17.883Z,51.21
2022-12-11T17:10:02.697Z,50.94
2022-12-11T17:12:47.724Z,52.64
2022-12-11T17:15:32.683Z,52.50
2022-12-11T17:18:18.145Z,52.40
2022-12-11T17:21:02.974Z,51.91
2022-12-11T17:23:47.955Z,52.36
2022-12-11T17:26:32.970Z,52.10
2022-12-11T17:29:17.833Z,53.13
2022-12-11T17:32:02.594Z,52.26
2022-12-11T17:34:47.675Z,53.10
2022-12-11T17:37:32.661Z,52.90
2022-12-11T17:40:17.546Z,51.38
2022-12-11T17:43:02.458Z,51.78
2022-12-11T17:45:47.378Z,52.16
2022-12-11T17:48:32.337Z,51.29
2022-12-11T17:51:17.149Z,50.75
2022-12-11T17:54:02.047Z,51.06
2022-12-11T17:56:47.003Z,50.18
2022-12-11T17:59:31.853Z,50.00
2022-12-11T18:02:16.785Z,49.99
2022-12-11T18:05:01.531Z,49.25
2022-12-11T18:07:46.427Z,49.24
2022-12-11T18:10:31.238Z,49.03
2022-12-11T18:13:16.177Z,48.89
2022-12-11T18:16:01.112Z,49.51
2022-12-11T18:18:45.973Z,48.60
2022-12-11T18:21:30.785Z,48.85
2022-12-11T18:24:15.586Z,49.08
2022-12-11T18:27:00.351Z,49.60
2022-12-11T18:29:45.227Z,49.20
2022-12-11T18:32:30.132Z,50.24
2022-12-11T18:35:15.103Z,50.19
2022-12-11T18:37:59.964Z,49.65
2022-12-11T18:40:44.742Z,50.14
2022-12-11T18:43:29.844Z,50.58
2022-12-11T18:46:14.641Z,51.53
2022-12-11T18:48:59.671Z,50.90
2022-12-11T18:51:44.555Z,51.33
2022-12-11T18:54:29.465Z,51.59
2022-12-11T18:57:14.235Z,52.49
2022-12-11T18:59:59.380Z,52.29
2022-12-11T19:02:44.883Z,52.79
2022-12-11T19:05:29.706Z,52.65
2022-12-11T19:08:14.628Z,54.07
2022-12-11T19:10:59.406Z,52.46
2022-12-11T19:13:44.390Z,53.06
2022-12-11T19:16:29.371Z,52.48
2022-12-11T19:19:14.253Z,53.15
2022-12-11T19:21:59.128Z,52.70
2022-12-11T19:24:44.124Z,53.04
2022-12-11T19:27:28.922Z,53.18
2022-12-11T19:30:13.925Z,53.01
2022-12-11T19:32:58.894Z,52.35
2022-12-11T19:35:43.773Z,52.94
2022-12-11T19:38:28.758Z,52.87
2022-12-11T19:41:13.623Z,51.70
2022-12-11T19:43:58.661Z,51.19
2022-12-11T19:46:43.567Z,52.67
2022-12-11T19:49:28.466Z,53.30
2022-12-11T19:52:13.406Z,53.16
2022-12-11T19:54:58.322Z,52.63
2022-12-11T19:57:43.393Z,52.69
2022-12-11T20:00:28.314Z,54.33
2022-12-11T20:03:13.197Z,52.69
2022-12-11T20:05:57.918Z,54.69
2022-12-11T20:08:45.739Z,53.01
2022-12-11T20:11:31.473Z,54.36
2022-12-11T20:14:16.506Z,54.31
2022-12-11T20:17:11.907Z,54.04
2022-12-11T20:19:57.336Z,54.03
2022-12-11T20:22:42.372Z,53.67
2022-12-11T20:25:27.346Z,54.68
2022-12-11T20:28:12.231Z,54.31
2022-12-11T20:30:57.006Z,53.92
2022-12-11T20:33:41.964Z,53.81
2022-12-11T20:36:26.788Z,54.28
2022-12-11T20:39:11.672Z,54.94
2022-12-11T20:41:56.626Z,52.70
2022-12-11T20:44:45.648Z,54.38
2022-12-11T20:47:33.958Z,55.10
2022-12-11T20:50:19.021Z,56.33
2022-12-11T20:53:03.926Z,55.51
2022-12-11T20:55:48.812Z,54.87
2022-12-11T20:58:33.692Z,55.64
2022-12-11T21:01:18.589Z,56.07
2022-12-11T21:04:03.415Z,56.87
2022-12-11T21:06:48.393Z,55.76
2022-12-11T21:09:33.480Z,56.34
2022-12-11T21:12:18.448Z,57.08
2022-12-11T21:15:03.259Z,56.48
2022-12-11T21:17:48.121Z,56.41
2022-12-11T21:20:33.069Z,58.13
2022-12-11T21:23:18.012Z,56.16
2022-12-11T21:26:02.981Z,57.22
2022-12-11T21:28:47.794Z,57.01
2022-12-11T21:31:32.717Z,57.15
2022-12-11T21:34:23.558Z,56.85
2022-12-11T21:37:10.304Z,55.18
2022-12-11T21:39:55.217Z,55.94
2022-12-11T21:42:40.121Z,55.88
2022-12-11T21:45:59.702Z,56.21
2022-12-11T21:48:29.993Z,57.07
2022-12-11T21:51:14.971Z,55.70
2022-12-11T21:53:59.866Z,54.18
2022-12-11T21:56:44.736Z,53.80
2022-12-11T21:59:29.539Z,55.41
2022-12-11T22:02:14.430Z,54.49
2022-12-11T22:04:59.343Z,55.91
2022-12-11T22:07:44.240Z,55.50
2022-12-11T22:10:29.076Z,55.29
2022-12-11T22:13:13.876Z,54.61
2022-12-11T22:15:58.882Z,54.47
2022-12-11T22:18:43.639Z,55.11
2022-12-11T22:21:28.497Z,54.85
2022-12-11T22:24:13.320Z,55.06
2022-12-11T22:26:58.311Z,54.20
2022-12-11T22:29:43.172Z,54.72
2022-12-11T22:32:27.952Z,54.24
2022-12-11T22:35:13.252Z,54.81
2022-12-11T22:37:58.305Z,54.15
2022-12-11T22:40:43.233Z,53.53
2022-12-11T22:43:28.060Z,54.11
2022-12-11T22:46:12.885Z,53.22
2022-12-11T22:48:57.671Z,54.15
2022-12-11T22:51:42.726Z,54.43
2022-12-11T22:54:27.537Z,53.95
2022-12-11T22:57:12.602Z,54.73
2022-12-11T22:59:57.439Z,53.70
2022-12-11T23:02:42.426Z,53.69
2022-12-11T23:05:27.800Z,54.70
2022-12-11T23:08:12.826Z,54.55
2022-12-11T23:10:58.077Z,54.70
2022-12-11T23:13:42.929Z,54.64
2022-12-11T23:16:27.842Z,55.03
2022-12-11T23:19:13.131Z,54.04
2022-12-11T23:21:58.036Z,54.85
2022-12-11T23:24:43.122Z,54.54
2022-12-11T23:27:28.038Z,54.17
2022-12-11T23:30:13.005Z,53.89
2022-12-11T23:32:58.005Z,53.63
2022-12-11T23:35:42.866Z,53.98
2022-12-11T23:38:27.649Z,53.22
2022-12-11T23:41:12.583Z,53.72
2022-12-11T23:43:57.420Z,54.67
2022-12-11T23:46:42.308Z,54.39
2022-12-11T23:49:27.179Z,54.59
2022-12-11T23:52:11.936Z,53.52
2022-12-11T23:54:56.816Z,53.61
2022-12-11T23:57:41.642Z,53.13
